sensor_id;sensor_type;location;lat;lon;timestamp;P1;durP1;ratioP1;P2;durP2;ratioP2
7965;SDS011;4028;43.272;26.932;2023-06-22T00:00:52;8.63;;;7.82;;
7965;SDS011;4028;43.272;26.932;2023-06-22T00:03:19;8.75;;;7.93;;
7965;SDS011;4028;43.272;26.932;2023-06-22T00:05:45;9.02;;;8.23;;
7965;SDS011;4028;43.272;26.932;2023-06-22T00:08:11;9.90;;;8.02;;
7965;SDS011;4028;43.272;26.932;2023-06-22T00:10:37;11.98;;;8.00;;
7965;SDS011;4028;43.272;26.932;2023-06-22T00:13:03;10.35;;;7.65;;
7965;SDS011;4028;43.272;26.932;2023-06-22T00:15:29;8.55;;;7.85;;
7965;SDS011;4028;43.272;26.932;2023-06-22T00:17:54;8.38;;;7.63;;
7965;SDS011;4028;43.272;26.932;2023-06-22T00:20:22;8.48;;;7.57;;
7965;SDS011;4028;43.272;26.932;2023-06-22T00:22:48;8.13;;;7.45;;
7965;SDS011;4028;43.272;26.932;2023-06-22T00:25:13;9.07;;;8.25;;
7965;SDS011;4028;43.272;26.932;2023-06-22T00:27:39;8.48;;;7.65;;
7965;SDS011;4028;43.272;26.932;2023-06-22T00:30:04;8.85;;;8.05;;
7965;SDS011;4028;43.272;26.932;2023-06-22T00:32:30;8.13;;;7.50;;
7965;SDS011;4028;43.272;26.932;2023-06-22T00:34:55;9.27;;;7.57;;
7965;SDS011;4028;43.272;26.932;2023-06-22T00:37:21;8.57;;;7.80;;
7965;SDS011;4028;43.272;26.932;2023-06-22T00:39:53;10.82;;;8.30;;
7965;SDS011;4028;43.272;26.932;2023-06-22T00:42:19;10.27;;;8.15;;
7965;SDS011;4028;43.272;26.932;2023-06-22T00:44:45;8.40;;;7.65;;
7965;SDS011;4028;43.272;26.932;2023-06-22T00:47:13;9.27;;;8.30;;
7965;SDS011;4028;43.272;26.932;2023-06-22T00:49:42;10.70;;;7.70;;
7965;SDS011;4028;43.272;26.932;2023-06-22T00:52:08;9.32;;;8.05;;
7965;SDS011;4028;43.272;26.932;2023-06-22T00:54:38;8.85;;;7.95;;
7965;SDS011;4028;43.272;26.932;2023-06-22T00:57:10;9.38;;;8.35;;
7965;SDS011;4028;43.272;26.932;2023-06-22T00:59:41;9.35;;;8.45;;
7965;SDS011;4028;43.272;26.932;2023-06-22T01:02:07;11.45;;;8.43;;
7965;SDS011;4028;43.272;26.932;2023-06-22T01:04:37;10.35;;;9.25;;
7965;SDS011;4028;43.272;26.932;2023-06-22T01:09:48;13.20;;;11.50;;
7965;SDS011;4028;43.272;26.932;2023-06-22T01:12:22;12.63;;;11.38;;
7965;SDS011;4028;43.272;26.932;2023-06-22T01:14:55;13.00;;;11.52;;
7965;SDS011;4028;43.272;26.932;2023-06-22T01:17:51;13.57;;;11.30;;
7965;SDS011;4028;43.272;26.932;2023-06-22T01:20:18;12.55;;;11.45;;
7965;SDS011;4028;43.272;26.932;2023-06-22T01:22:54;11.82;;;10.73;;
7965;SDS011;4028;43.272;26.932;2023-06-22T01:25:28;13.18;;;10.60;;
7965;SDS011;4028;43.272;26.932;2023-06-22T01:28:49;11.70;;;10.20;;
7965;SDS011;4028;43.272;26.932;2023-06-22T01:30:58;12.48;;;11.18;;
7965;SDS011;4028;43.272;26.932;2023-06-22T01:33:34;12.20;;;11.00;;
7965;SDS011;4028;43.272;26.932;2023-06-22T01:36:02;12.45;;;11.30;;
7965;SDS011;4028;43.272;26.932;2023-06-22T01:38:29;11.40;;;10.38;;
7965;SDS011;4028;43.272;26.932;2023-06-22T01:40:57;12.68;;;11.43;;
7965;SDS011;4028;43.272;26.932;2023-06-22T01:43:24;12.45;;;11.20;;
7965;SDS011;4028;43.272;26.932;2023-06-22T01:45:51;11.80;;;10.68;;
7965;SDS011;4028;43.272;26.932;2023-06-22T01:48:17;11.27;;;10.23;;
7965;SDS011;4028;43.272;26.932;2023-06-22T01:50:44;11.65;;;10.10;;
7965;SDS011;4028;43.272;26.932;2023-06-22T01:53:10;10.48;;;9.45;;
7965;SDS011;4028;43.272;26.932;2023-06-22T01:55:36;10.02;;;9.23;;
7965;SDS011;4028;43.272;26.932;2023-06-22T01:58:01;10.02;;;9.20;;
7965;SDS011;4028;43.272;26.932;2023-06-22T02:00:27;9.20;;;8.40;;
7965;SDS011;4028;43.272;26.932;2023-06-22T02:02:58;9.65;;;8.75;;
7965;SDS011;4028;43.272;26.932;2023-06-22T02:05:28;8.55;;;7.78;;
7965;SDS011;4028;43.272;26.932;2023-06-22T02:08:19;8.48;;;7.85;;
7965;SDS011;4028;43.272;26.932;2023-06-22T02:10:48;10.45;;;8.43;;
7965;SDS011;4028;43.272;26.932;2023-06-22T02:13:15;9.27;;;8.35;;
7965;SDS011;4028;43.272;26.932;2023-06-22T02:15:41;12.60;;;8.48;;
7965;SDS011;4028;43.272;26.932;2023-06-22T02:18:07;9.40;;;8.23;;
7965;SDS011;4028;43.272;26.932;2023-06-22T02:20:36;12.50;;;8.75;;
7965;SDS011;4028;43.272;26.932;2023-06-22T02:23:02;11.90;;;8.38;;
7965;SDS011;4028;43.272;26.932;2023-06-22T02:25:27;9.13;;;8.18;;
7965;SDS011;4028;43.272;26.932;2023-06-22T02:27:53;11.60;;;8.52;;
7965;SDS011;4028;43.272;26.932;2023-06-22T02:30:18;12.23;;;8.32;;
7965;SDS011;4028;43.272;26.932;2023-06-22T02:32:44;8.73;;;7.95;;
7965;SDS011;4028;43.272;26.932;2023-06-22T02:35:09;9.20;;;8.15;;
7965;SDS011;4028;43.272;26.932;2023-06-22T02:37:35;8.85;;;8.05;;
7965;SDS011;4028;43.272;26.932;2023-06-22T02:40:07;8.82;;;7.85;;
7965;SDS011;4028;43.272;26.932;2023-06-22T02:42:34;12.80;;;8.85;;
7965;SDS011;4028;43.272;26.932;2023-06-22T02:45:00;11.57;;;8.60;;
7965;SDS011;4028;43.272;26.932;2023-06-22T02:47:26;8.98;;;8.02;;
7965;SDS011;4028;43.272;26.932;2023-06-22T02:49:51;10.43;;;8.88;;
7965;SDS011;4028;43.272;26.932;2023-06-22T02:52:17;9.20;;;8.23;;
7965;SDS011;4028;43.272;26.932;2023-06-22T02:54:42;8.38;;;7.68;;
7965;SDS011;4028;43.272;26.932;2023-06-22T02:57:10;11.88;;;7.80;;
7965;SDS011;4028;43.272;26.932;2023-06-22T02:59:39;10.10;;;8.93;;
7965;SDS011;4028;43.272;26.932;2023-06-22T03:02:06;10.18;;;9.10;;
7965;SDS011;4028;43.272;26.932;2023-06-22T03:04:31;13.38;;;9.02;;
7965;SDS011;4028;43.272;26.932;2023-06-22T03:06:57;16.48;;;9.93;;
7965;SDS011;4028;43.272;26.932;2023-06-22T03:09:26;11.05;;;9.95;;
7965;SDS011;4028;43.272;26.932;2023-06-22T03:11:53;12.15;;;9.93;;
7965;SDS011;4028;43.272;26.932;2023-06-22T03:14:21;14.77;;;10.57;;
7965;SDS011;4028;43.272;26.932;2023-06-22T03:16:46;15.05;;;9.55;;
7965;SDS011;4028;43.272;26.932;2023-06-22T03:19:12;12.43;;;9.65;;
7965;SDS011;4028;43.272;26.932;2023-06-22T03:21:38;10.30;;;9.30;;
7965;SDS011;4028;43.272;26.932;2023-06-22T03:24:05;12.90;;;9.77;;
7965;SDS011;4028;43.272;26.932;2023-06-22T03:26:31;10.27;;;9.25;;
7965;SDS011;4028;43.272;26.932;2023-06-22T03:28:57;10.00;;;9.00;;
7965;SDS011;4028;43.272;26.932;2023-06-22T03:31:23;11.30;;;8.85;;
7965;SDS011;4028;43.272;26.932;2023-06-22T03:33:48;12.82;;;8.70;;
7965;SDS011;4028;43.272;26.932;2023-06-22T03:36:15;9.82;;;8.82;;
7965;SDS011;4028;43.272;26.932;2023-06-22T03:38:47;9.80;;;8.73;;
7965;SDS011;4028;43.272;26.932;2023-06-22T03:41:14;10.27;;;8.85;;
7965;SDS011;4028;43.272;26.932;2023-06-22T03:43:39;8.90;;;7.75;;
7965;SDS011;4028;43.272;26.932;2023-06-22T03:46:05;9.13;;;7.57;;
7965;SDS011;4028;43.272;26.932;2023-06-22T03:48:31;10.75;;;7.85;;
7965;SDS011;4028;43.272;26.932;2023-06-22T03:50:56;8.85;;;7.40;;
7965;SDS011;4028;43.272;26.932;2023-06-22T03:53:22;8.80;;;7.97;;
7965;SDS011;4028;43.272;26.932;2023-06-22T03:55:48;9.25;;;7.15;;
7965;SDS011;4028;43.272;26.932;2023-06-22T03:58:15;7.95;;;7.13;;
7965;SDS011;4028;43.272;26.932;2023-06-22T04:00:41;8.02;;;6.80;;
7965;SDS011;4028;43.272;26.932;2023-06-22T04:03:06;8.02;;;7.32;;
7965;SDS011;4028;43.272;26.932;2023-06-22T04:05:32;8.95;;;7.60;;
7965;SDS011;4028;43.272;26.932;2023-06-22T04:07:58;8.32;;;7.63;;
7965;SDS011;4028;43.272;26.932;2023-06-22T04:10:23;8.88;;;7.07;;
7965;SDS011;4028;43.272;26.932;2023-06-22T04:12:49;10.85;;;7.82;;
7965;SDS011;4028;43.272;26.932;2023-06-22T04:15:14;8.55;;;7.65;;
7965;SDS011;4028;43.272;26.932;2023-06-22T04:17:40;8.48;;;7.63;;
7965;SDS011;4028;43.272;26.932;2023-06-22T04:20:05;14.55;;;8.10;;
7965;SDS011;4028;43.272;26.932;2023-06-22T04:22:32;11.25;;;8.43;;
7965;SDS011;4028;43.272;26.932;2023-06-22T04:24:57;12.15;;;9.00;;
7965;SDS011;4028;43.272;26.932;2023-06-22T04:27:23;9.75;;;7.95;;
7965;SDS011;4028;43.272;26.932;2023-06-22T04:29:48;13.30;;;7.50;;
7965;SDS011;4028;43.272;26.932;2023-06-22T04:32:17;14.68;;;8.48;;
7965;SDS011;4028;43.272;26.932;2023-06-22T04:34:43;9.23;;;8.18;;
7965;SDS011;4028;43.272;26.932;2023-06-22T04:37:09;9.90;;;8.02;;
7965;SDS011;4028;43.272;26.932;2023-06-22T04:39:34;11.20;;;8.95;;
7965;SDS011;4028;43.272;26.932;2023-06-22T04:42:00;9.20;;;8.30;;
7965;SDS011;4028;43.272;26.932;2023-06-22T04:44:26;13.40;;;9.20;;
7965;SDS011;4028;43.272;26.932;2023-06-22T04:46:54;12.30;;;8.30;;
7965;SDS011;4028;43.272;26.932;2023-06-22T04:49:25;10.85;;;8.18;;
7965;SDS011;4028;43.272;26.932;2023-06-22T04:51:58;8.85;;;7.95;;
7965;SDS011;4028;43.272;26.932;2023-06-22T04:54:25;9.82;;;7.53;;
7965;SDS011;4028;43.272;26.932;2023-06-22T04:57:01;7.82;;;7.10;;
7965;SDS011;4028;43.272;26.932;2023-06-22T04:59:28;8.27;;;7.40;;
7965;SDS011;4028;43.272;26.932;2023-06-22T05:01:55;10.15;;;9.07;;
7965;SDS011;4028;43.272;26.932;2023-06-22T05:04:23;9.43;;;7.50;;
7965;SDS011;4028;43.272;26.932;2023-06-22T05:06:49;7.57;;;6.88;;
7965;SDS011;4028;43.272;26.932;2023-06-22T05:09:15;7.60;;;6.90;;
7965;SDS011;4028;43.272;26.932;2023-06-22T05:11:42;7.10;;;6.40;;
7965;SDS011;4028;43.272;26.932;2023-06-22T05:14:08;7.45;;;6.82;;
7965;SDS011;4028;43.272;26.932;2023-06-22T05:16:33;7.78;;;6.95;;
7965;SDS011;4028;43.272;26.932;2023-06-22T05:18:59;8.10;;;7.13;;
7965;SDS011;4028;43.272;26.932;2023-06-22T05:21:25;9.05;;;8.18;;
7965;SDS011;4028;43.272;26.932;2023-06-22T05:23:52;8.52;;;7.55;;
7965;SDS011;4028;43.272;26.932;2023-06-22T05:26:19;9.65;;;6.60;;
7965;SDS011;4028;43.272;26.932;2023-06-22T05:28:45;7.80;;;6.95;;
7965;SDS011;4028;43.272;26.932;2023-06-22T05:31:14;10.07;;;7.93;;
7965;SDS011;4028;43.272;26.932;2023-06-22T05:33:40;8.95;;;7.20;;
7965;SDS011;4028;43.272;26.932;2023-06-22T05:36:06;9.73;;;8.07;;
7965;SDS011;4028;43.272;26.932;2023-06-22T05:38:32;8.77;;;7.95;;
7965;SDS011;4028;43.272;26.932;2023-06-22T05:40:58;8.15;;;7.00;;
7965;SDS011;4028;43.272;26.932;2023-06-22T05:43:23;8.02;;;7.32;;
7965;SDS011;4028;43.272;26.932;2023-06-22T05:45:49;10.23;;;7.85;;
7965;SDS011;4028;43.272;26.932;2023-06-22T05:48:14;9.05;;;7.57;;
7965;SDS011;4028;43.272;26.932;2023-06-22T05:50:39;11.63;;;7.55;;
7965;SDS011;4028;43.272;26.932;2023-06-22T05:53:05;9.82;;;8.52;;
7965;SDS011;4028;43.272;26.932;2023-06-22T05:55:32;8.80;;;7.90;;
7965;SDS011;4028;43.272;26.932;2023-06-22T05:57:57;7.68;;;6.97;;
7965;SDS011;4028;43.272;26.932;2023-06-22T06:00:23;7.60;;;6.65;;
7965;SDS011;4028;43.272;26.932;2023-06-22T06:02:49;7.00;;;6.40;;
7965;SDS011;4028;43.272;26.932;2023-06-22T06:05:15;8.73;;;7.78;;
7965;SDS011;4028;43.272;26.932;2023-06-22T06:07:41;8.63;;;6.88;;
7965;SDS011;4028;43.272;26.932;2023-06-22T06:10:08;8.18;;;6.88;;
7965;SDS011;4028;43.272;26.932;2023-06-22T06:12:34;7.82;;;6.95;;
7965;SDS011;4028;43.272;26.932;2023-06-22T06:14:59;10.30;;;7.15;;
7965;SDS011;4028;43.272;26.932;2023-06-22T06:17:25;7.32;;;6.63;;
7965;SDS011;4028;43.272;26.932;2023-06-22T06:19:51;8.20;;;6.72;;
7965;SDS011;4028;43.272;26.932;2023-06-22T06:22:16;7.53;;;6.85;;
7965;SDS011;4028;43.272;26.932;2023-06-22T06:24:41;7.57;;;6.97;;
7965;SDS011;4028;43.272;26.932;2023-06-22T06:27:07;8.07;;;7.28;;
7965;SDS011;4028;43.272;26.932;2023-06-22T06:29:33;7.63;;;6.65;;
7965;SDS011;4028;43.272;26.932;2023-06-22T06:31:58;7.90;;;7.20;;
7965;SDS011;4028;43.272;26.932;2023-06-22T06:34:24;8.75;;;6.65;;
7965;SDS011;4028;43.272;26.932;2023-06-22T06:36:49;7.80;;;7.10;;
7965;SDS011;4028;43.272;26.932;2023-06-22T06:39:15;7.72;;;6.93;;
7965;SDS011;4028;43.272;26.932;2023-06-22T06:41:41;8.75;;;7.50;;
7965;SDS011;4028;43.272;26.932;2023-06-22T06:44:06;7.80;;;7.10;;
7965;SDS011;4028;43.272;26.932;2023-06-22T06:46:32;6.97;;;6.47;;
7965;SDS011;4028;43.272;26.932;2023-06-22T06:48:57;7.03;;;6.40;;
7965;SDS011;4028;43.272;26.932;2023-06-22T06:51:23;10.02;;;6.75;;
7965;SDS011;4028;43.272;26.932;2023-06-22T06:53:49;6.72;;;5.97;;
7965;SDS011;4028;43.272;26.932;2023-06-22T06:56:14;7.15;;;6.55;;
7965;SDS011;4028;43.272;26.932;2023-06-22T06:58:43;7.22;;;6.68;;
7965;SDS011;4028;43.272;26.932;2023-06-22T07:01:10;7.10;;;6.50;;
7965;SDS011;4028;43.272;26.932;2023-06-22T07:03:37;6.97;;;6.38;;
7965;SDS011;4028;43.272;26.932;2023-06-22T07:06:02;7.68;;;7.07;;
7965;SDS011;4028;43.272;26.932;2023-06-22T07:08:28;6.93;;;6.43;;
7965;SDS011;4028;43.272;26.932;2023-06-22T07:10:53;7.95;;;6.32;;
7965;SDS011;4028;43.272;26.932;2023-06-22T07:13:19;7.15;;;6.55;;
7965;SDS011;4028;43.272;26.932;2023-06-22T07:15:44;7.28;;;6.65;;
7965;SDS011;4028;43.272;26.932;2023-06-22T07:18:10;7.00;;;6.40;;
7965;SDS011;4028;43.272;26.932;2023-06-22T07:20:36;6.97;;;6.45;;
7965;SDS011;4028;43.272;26.932;2023-06-22T07:23:01;7.32;;;6.63;;
7965;SDS011;4028;43.272;26.932;2023-06-22T07:25:28;7.75;;;6.53;;
7965;SDS011;4028;43.272;26.932;2023-06-22T07:27:57;7.20;;;6.60;;
7965;SDS011;4028;43.272;26.932;2023-06-22T07:30:26;7.60;;;6.95;;
7965;SDS011;4028;43.272;26.932;2023-06-22T07:32:52;7.95;;;7.25;;
7965;SDS011;4028;43.272;26.932;2023-06-22T07:35:17;7.72;;;7.10;;
7965;SDS011;4028;43.272;26.932;2023-06-22T07:37:43;8.48;;;7.13;;
7965;SDS011;4028;43.272;26.932;2023-06-22T07:40:09;7.10;;;6.40;;
7965;SDS011;4028;43.272;26.932;2023-06-22T07:42:35;7.00;;;6.43;;
7965;SDS011;4028;43.272;26.932;2023-06-22T07:45:01;7.22;;;6.63;;
7965;SDS011;4028;43.272;26.932;2023-06-22T07:47:28;7.60;;;6.93;;
7965;SDS011;4028;43.272;26.932;2023-06-22T07:49:54;7.10;;;6.40;;
7965;SDS011;4028;43.272;26.932;2023-06-22T07:52:22;6.72;;;6.13;;
7965;SDS011;4028;43.272;26.932;2023-06-22T07:54:49;7.15;;;6.55;;
7965;SDS011;4028;43.272;26.932;2023-06-22T07:57:14;7.90;;;7.18;;
7965;SDS011;4028;43.272;26.932;2023-06-22T07:59:40;7.68;;;7.07;;
7965;SDS011;4028;43.272;26.932;2023-06-22T08:02:05;8.20;;;7.50;;
7965;SDS011;4028;43.272;26.932;2023-06-22T08:04:31;8.25;;;7.45;;
7965;SDS011;4028;43.272;26.932;2023-06-22T08:06:59;7.72;;;7.13;;
7965;SDS011;4028;43.272;26.932;2023-06-22T08:09:24;8.35;;;7.63;;
7965;SDS011;4028;43.272;26.932;2023-06-22T08:11:50;8.30;;;7.65;;
7965;SDS011;4028;43.272;26.932;2023-06-22T08:14:15;10.63;;;7.13;;
7965;SDS011;4028;43.272;26.932;2023-06-22T08:16:41;6.97;;;6.30;;
7965;SDS011;4028;43.272;26.932;2023-06-22T08:19:07;7.57;;;6.50;;
7965;SDS011;4028;43.272;26.932;2023-06-22T08:21:32;7.43;;;6.70;;
7965;SDS011;4028;43.272;26.932;2023-06-22T08:23:58;7.38;;;6.78;;
7965;SDS011;4028;43.272;26.932;2023-06-22T08:26:23;7.10;;;6.50;;
7965;SDS011;4028;43.272;26.932;2023-06-22T08:28:49;6.97;;;6.38;;
7965;SDS011;4028;43.272;26.932;2023-06-22T08:31:14;7.00;;;6.40;;
7965;SDS011;4028;43.272;26.932;2023-06-22T08:33:40;6.60;;;5.70;;
7965;SDS011;4028;43.272;26.932;2023-06-22T08:36:06;6.82;;;6.20;;
7965;SDS011;4028;43.272;26.932;2023-06-22T08:38:33;9.55;;;6.28;;
7965;SDS011;4028;43.272;26.932;2023-06-22T08:40:58;6.20;;;5.70;;
7965;SDS011;4028;43.272;26.932;2023-06-22T08:43:25;6.80;;;5.72;;
7965;SDS011;4028;43.272;26.932;2023-06-22T08:45:50;6.25;;;5.65;;
7965;SDS011;4028;43.272;26.932;2023-06-22T08:48:16;6.35;;;5.85;;
7965;SDS011;4028;43.272;26.932;2023-06-22T08:50:41;8.75;;;6.20;;
7965;SDS011;4028;43.272;26.932;2023-06-22T08:53:06;7.88;;;5.53;;
7965;SDS011;4028;43.272;26.932;2023-06-22T08:55:33;6.15;;;5.65;;
7965;SDS011;4028;43.272;26.932;2023-06-22T08:57:59;6.22;;;5.70;;
7965;SDS011;4028;43.272;26.932;2023-06-22T09:00:24;5.97;;;5.40;;
7965;SDS011;4028;43.272;26.932;2023-06-22T09:02:50;6.53;;;5.75;;
7965;SDS011;4028;43.272;26.932;2023-06-22T09:05:15;7.43;;;6.40;;
7965;SDS011;4028;43.272;26.932;2023-06-22T09:07:41;6.15;;;5.55;;
7965;SDS011;4028;43.272;26.932;2023-06-22T09:10:07;6.25;;;5.68;;
7965;SDS011;4028;43.272;26.932;2023-06-22T09:12:33;5.95;;;5.50;;
7965;SDS011;4028;43.272;26.932;2023-06-22T09:14:59;7.15;;;6.57;;
7965;SDS011;4028;43.272;26.932;2023-06-22T09:17:26;6.78;;;6.07;;
7965;SDS011;4028;43.272;26.932;2023-06-22T09:19:51;6.88;;;6.38;;
7965;SDS011;4028;43.272;26.932;2023-06-22T09:22:17;6.35;;;5.80;;
7965;SDS011;4028;43.272;26.932;2023-06-22T09:24:42;6.72;;;5.93;;
7965;SDS011;4028;43.272;26.932;2023-06-22T09:27:08;6.80;;;6.30;;
7965;SDS011;4028;43.272;26.932;2023-06-22T09:29:33;7.28;;;6.20;;
7965;SDS011;4028;43.272;26.932;2023-06-22T09:32:02;6.18;;;5.68;;
7965;SDS011;4028;43.272;26.932;2023-06-22T09:34:27;6.45;;;5.95;;
7965;SDS011;4028;43.272;26.932;2023-06-22T09:36:53;6.38;;;5.90;;
7965;SDS011;4028;43.272;26.932;2023-06-22T09:39:18;6.05;;;5.65;;
7965;SDS011;4028;43.272;26.932;2023-06-22T09:41:44;6.40;;;5.80;;
7965;SDS011;4028;43.272;26.932;2023-06-22T09:44:10;8.00;;;6.07;;
7965;SDS011;4028;43.272;26.932;2023-06-22T09:46:35;6.85;;;5.80;;
7965;SDS011;4028;43.272;26.932;2023-06-22T09:49:00;6.25;;;5.75;;
7965;SDS011;4028;43.272;26.932;2023-06-22T09:51:26;6.18;;;5.68;;
7965;SDS011;4028;43.272;26.932;2023-06-22T09:53:52;6.75;;;6.15;;
7965;SDS011;4028;43.272;26.932;2023-06-22T09:56:20;6.10;;;5.50;;
7965;SDS011;4028;43.272;26.932;2023-06-22T09:58:46;7.00;;;6.28;;
7965;SDS011;4028;43.272;26.932;2023-06-22T10:01:12;6.97;;;6.38;;
7965;SDS011;4028;43.272;26.932;2023-06-22T10:03:39;6.55;;;6.05;;
7965;SDS011;4028;43.272;26.932;2023-06-22T10:06:06;6.70;;;6.20;;
7965;SDS011;4028;43.272;26.932;2023-06-22T10:08:32;8.65;;;5.70;;
7965;SDS011;4028;43.272;26.932;2023-06-22T10:10:58;6.65;;;6.05;;
7965;SDS011;4028;43.272;26.932;2023-06-22T10:13:24;6.82;;;6.22;;
7965;SDS011;4028;43.272;26.932;2023-06-22T10:15:49;6.35;;;5.85;;
7965;SDS011;4028;43.272;26.932;2023-06-22T10:18:17;6.80;;;6.30;;
7965;SDS011;4028;43.272;26.932;2023-06-22T10:20:43;6.57;;;5.88;;
7965;SDS011;4028;43.272;26.932;2023-06-22T10:23:09;6.50;;;6.00;;
7965;SDS011;4028;43.272;26.932;2023-06-22T10:25:34;6.60;;;6.10;;
7965;SDS011;4028;43.272;26.932;2023-06-22T10:28:00;5.78;;;5.38;;
7965;SDS011;4028;43.272;26.932;2023-06-22T10:30:26;6.20;;;5.80;;
7965;SDS011;4028;43.272;26.932;2023-06-22T10:32:51;6.60;;;6.10;;
7965;SDS011;4028;43.272;26.932;2023-06-22T10:35:17;6.75;;;5.80;;
7965;SDS011;4028;43.272;26.932;2023-06-22T10:37:45;6.50;;;5.80;;
7965;SDS011;4028;43.272;26.932;2023-06-22T10:40:12;7.50;;;6.63;;
7965;SDS011;4028;43.272;26.932;2023-06-22T10:42:38;6.55;;;6.07;;
7965;SDS011;4028;43.272;26.932;2023-06-22T10:45:04;6.40;;;5.90;;
7965;SDS011;4028;43.272;26.932;2023-06-22T10:47:30;6.32;;;5.82;;
7965;SDS011;4028;43.272;26.932;2023-06-22T10:49:56;6.43;;;5.90;;
7965;SDS011;4028;43.272;26.932;2023-06-22T10:52:21;6.03;;;5.63;;
7965;SDS011;4028;43.272;26.932;2023-06-22T10:54:47;6.30;;;5.80;;
7965;SDS011;4028;43.272;26.932;2023-06-22T10:57:12;6.10;;;5.70;;
7965;SDS011;4028;43.272;26.932;2023-06-22T10:59:37;6.50;;;6.00;;
7965;SDS011;4028;43.272;26.932;2023-06-22T11:02:03;7.05;;;6.35;;
7965;SDS011;4028;43.272;26.932;2023-06-22T11:04:28;6.30;;;5.68;;
7965;SDS011;4028;43.272;26.932;2023-06-22T11:06:54;6.13;;;5.63;;
7965;SDS011;4028;43.272;26.932;2023-06-22T11:09:21;6.35;;;5.82;;
7965;SDS011;4028;43.272;26.932;2023-06-22T11:11:47;6.45;;;5.90;;
7965;SDS011;4028;43.272;26.932;2023-06-22T11:14:13;6.00;;;5.50;;
7965;SDS011;4028;43.272;26.932;2023-06-22T11:16:38;5.95;;;5.55;;
7965;SDS011;4028;43.272;26.932;2023-06-22T11:19:04;6.03;;;5.43;;
7965;SDS011;4028;43.272;26.932;2023-06-22T11:21:31;8.23;;;5.45;;
7965;SDS011;4028;43.272;26.932;2023-06-22T11:23:57;6.10;;;5.60;;
7965;SDS011;4028;43.272;26.932;2023-06-22T11:26:24;6.00;;;5.40;;
7965;SDS011;4028;43.272;26.932;2023-06-22T11:28:52;6.50;;;5.90;;
7965;SDS011;4028;43.272;26.932;2023-06-22T11:31:17;7.43;;;5.38;;
7965;SDS011;4028;43.272;26.932;2023-06-22T11:33:43;6.05;;;5.55;;
7965;SDS011;4028;43.272;26.932;2023-06-22T11:36:10;6.03;;;5.53;;
7965;SDS011;4028;43.272;26.932;2023-06-22T11:38:37;5.97;;;5.35;;
7965;SDS011;4028;43.272;26.932;2023-06-22T11:41:04;6.45;;;5.70;;
7965;SDS011;4028;43.272;26.932;2023-06-22T11:43:30;6.20;;;5.60;;
7965;SDS011;4028;43.272;26.932;2023-06-22T11:45:56;6.05;;;5.55;;
7965;SDS011;4028;43.272;26.932;2023-06-22T11:48:23;6.03;;;5.63;;
7965;SDS011;4028;43.272;26.932;2023-06-22T11:50:49;6.50;;;6.00;;
7965;SDS011;4028;43.272;26.932;2023-06-22T11:53:15;5.53;;;5.13;;
7965;SDS011;4028;43.272;26.932;2023-06-22T11:55:42;5.88;;;5.35;;
7965;SDS011;4028;43.272;26.932;2023-06-22T11:58:10;5.55;;;5.15;;
7965;SDS011;4028;43.272;26.932;2023-06-22T12:00:36;5.80;;;5.40;;
7965;SDS011;4028;43.272;26.932;2023-06-22T12:03:02;7.38;;;5.78;;
7965;SDS011;4028;43.272;26.932;2023-06-22T12:05:28;6.28;;;5.78;;
7965;SDS011;4028;43.272;26.932;2023-06-22T12:07:53;8.13;;;5.65;;
7965;SDS011;4028;43.272;26.932;2023-06-22T12:10:20;6.13;;;5.53;;
7965;SDS011;4028;43.272;26.932;2023-06-22T12:12:46;6.00;;;5.30;;
7965;SDS011;4028;43.272;26.932;2023-06-22T12:15:11;6.32;;;5.82;;
7965;SDS011;4028;43.272;26.932;2023-06-22T12:17:37;5.93;;;5.35;;
7965;SDS011;4028;43.272;26.932;2023-06-22T12:20:03;5.70;;;5.13;;
7965;SDS011;4028;43.272;26.932;2023-06-22T12:22:34;6.35;;;5.15;;
7965;SDS011;4028;43.272;26.932;2023-06-22T12:24:59;7.20;;;5.72;;
7965;SDS011;4028;43.272;26.932;2023-06-22T12:27:25;7.18;;;5.63;;
7965;SDS011;4028;43.272;26.932;2023-06-22T12:29:51;5.80;;;5.40;;
7965;SDS011;4028;43.272;26.932;2023-06-22T12:32:17;6.38;;;5.47;;
7965;SDS011;4028;43.272;26.932;2023-06-22T12:34:42;5.57;;;5.15;;
7965;SDS011;4028;43.272;26.932;2023-06-22T12:37:08;5.95;;;5.45;;
7965;SDS011;4028;43.272;26.932;2023-06-22T12:39:34;6.18;;;5.68;;
7965;SDS011;4028;43.272;26.932;2023-06-22T12:42:00;5.88;;;5.25;;
7965;SDS011;4028;43.272;26.932;2023-06-22T12:44:26;5.53;;;4.97;;
7965;SDS011;4028;43.272;26.932;2023-06-22T12:46:51;5.88;;;5.38;;
7965;SDS011;4028;43.272;26.932;2023-06-22T12:49:17;5.85;;;5.35;;
7965;SDS011;4028;43.272;26.932;2023-06-22T12:51:43;5.55;;;5.13;;
7965;SDS011;4028;43.272;26.932;2023-06-22T12:54:09;8.98;;;5.70;;
7965;SDS011;4028;43.272;26.932;2023-06-22T12:56:35;5.97;;;5.07;;
7965;SDS011;4028;43.272;26.932;2023-06-22T12:59:01;5.90;;;5.30;;
7965;SDS011;4028;43.272;26.932;2023-06-22T13:01:32;6.55;;;5.95;;
7965;SDS011;4028;43.272;26.932;2023-06-22T13:03:58;10.13;;;5.50;;
7965;SDS011;4028;43.272;26.932;2023-06-22T13:06:24;6.20;;;5.70;;
7965;SDS011;4028;43.272;26.932;2023-06-22T13:08:50;5.88;;;5.47;;
7965;SDS011;4028;43.272;26.932;2023-06-22T13:11:15;6.57;;;5.63;;
7965;SDS011;4028;43.272;26.932;2023-06-22T13:13:41;5.93;;;5.32;;
7965;SDS011;4028;43.272;26.932;2023-06-22T13:16:06;5.97;;;5.40;;
7965;SDS011;4028;43.272;26.932;2023-06-22T13:18:32;7.05;;;5.95;;
7965;SDS011;4028;43.272;26.932;2023-06-22T13:21:00;6.00;;;5.50;;
7965;SDS011;4028;43.272;26.932;2023-06-22T13:23:26;7.50;;;5.53;;
7965;SDS011;4028;43.272;26.932;2023-06-22T13:25:52;7.38;;;5.65;;
7965;SDS011;4028;43.272;26.932;2023-06-22T13:28:17;6.00;;;5.57;;
7965;SDS011;4028;43.272;26.932;2023-06-22T13:30:43;6.80;;;5.78;;
7965;SDS011;4028;43.272;26.932;2023-06-22T13:33:12;5.72;;;5.25;;
7965;SDS011;4028;43.272;26.932;2023-06-22T13:35:40;6.18;;;5.60;;
7965;SDS011;4028;43.272;26.932;2023-06-22T13:38:09;5.93;;;5.35;;
7965;SDS011;4028;43.272;26.932;2023-06-22T13:40:35;7.07;;;5.35;;
7965;SDS011;4028;43.272;26.932;2023-06-22T13:43:03;6.10;;;5.50;;
7965;SDS011;4028;43.272;26.932;2023-06-22T13:45:29;5.97;;;5.40;;
7965;SDS011;4028;43.272;26.932;2023-06-22T13:47:55;7.15;;;5.90;;
7965;SDS011;4028;43.272;26.932;2023-06-22T13:50:20;7.47;;;5.65;;
7965;SDS011;4028;43.272;26.932;2023-06-22T13:52:46;6.03;;;5.40;;
7965;SDS011;4028;43.272;26.932;2023-06-22T13:55:11;6.50;;;5.55;;
7965;SDS011;4028;43.272;26.932;2023-06-22T13:57:39;5.97;;;5.47;;
7965;SDS011;4028;43.272;26.932;2023-06-22T14:00:05;6.07;;;5.50;;
7965;SDS011;4028;43.272;26.932;2023-06-22T14:02:31;5.65;;;5.25;;
7965;SDS011;4028;43.272;26.932;2023-06-22T14:04:57;6.57;;;4.97;;
7965;SDS011;4028;43.272;26.932;2023-06-22T14:07:22;5.38;;;5.00;;
7965;SDS011;4028;43.272;26.932;2023-06-22T14:09:49;5.53;;;5.13;;
7965;SDS011;4028;43.272;26.932;2023-06-22T14:12:15;5.55;;;5.13;;
7965;SDS011;4028;43.272;26.932;2023-06-22T14:14:42;7.55;;;5.57;;
7965;SDS011;4028;43.272;26.932;2023-06-22T14:17:08;6.13;;;5.43;;
7965;SDS011;4028;43.272;26.932;2023-06-22T14:19:33;5.80;;;5.30;;
7965;SDS011;4028;43.272;26.932;2023-06-22T14:21:59;5.07;;;4.68;;
7965;SDS011;4028;43.272;26.932;2023-06-22T14:24:24;5.50;;;5.10;;
7965;SDS011;4028;43.272;26.932;2023-06-22T14:26:50;5.90;;;5.30;;
7965;SDS011;4028;43.272;26.932;2023-06-22T14:29:15;5.80;;;5.10;;
7965;SDS011;4028;43.272;26.932;2023-06-22T14:31:44;6.03;;;5.28;;
7965;SDS011;4028;43.272;26.932;2023-06-22T14:34:10;5.68;;;5.28;;
7965;SDS011;4028;43.272;26.932;2023-06-22T14:36:35;6.72;;;5.35;;
7965;SDS011;4028;43.272;26.932;2023-06-22T14:39:01;5.75;;;5.35;;
7965;SDS011;4028;43.272;26.932;2023-06-22T14:41:27;5.55;;;5.00;;
7965;SDS011;4028;43.272;26.932;2023-06-22T14:43:52;5.53;;;5.03;;
7965;SDS011;4028;43.272;26.932;2023-06-22T14:46:18;8.18;;;5.25;;
7965;SDS011;4028;43.272;26.932;2023-06-22T14:48:45;5.38;;;4.97;;
7965;SDS011;4028;43.272;26.932;2023-06-22T14:51:11;5.70;;;5.30;;
7965;SDS011;4028;43.272;26.932;2023-06-22T14:53:37;5.80;;;5.20;;
7965;SDS011;4028;43.272;26.932;2023-06-22T14:56:02;5.78;;;5.28;;